Time;durP1;ratioP1;P1;durP2;ratioP2;P2;SDS_P1;SDS_P2;PMS_P1;PMS_P2;Temp;Humidity;BMP_temperature;BMP_pressure;BME280_temperature;BME280_humidity;BME280_pressure;Samples;Min_cycle;Max_cycle;Signal;HPM_P1;HPM_P2
2023/09/27 00:00:40;;;;;;;19.50;17.48;;;16.50;99.90;;;;;;5129438;27;20038;-63
2023/09/27 00:03:06;;;;;;;19.85;17.70;;;16.50;99.90;;;;;;5130180;27;20081;-64
2023/09/27 00:05:32;;;;;;;19.95;17.85;;;16.50;99.90;;;;;;5111137;27;20043;-61
2023/09/27 00:07:58;;;;;;;20.80;18.60;;;16.50;99.90;;;;;;5130297;27;20044;-63
2023/09/27 00:10:24;;;;;;;22.20;19.67;;;16.40;99.90;;;;;;5129773;27;20121;-63
2023/09/27 00:12:49;;;;;;;21.20;18.98;;;16.50;99.90;;;;;;5127380;27;20454;-63
2023/09/27 00:15:16;;;;;;;20.65;18.50;;;16.40;99.90;;;;;;5126784;27;20073;-63
2023/09/27 00:17:43;;;;;;;21.98;19.80;;;16.40;99.90;;;;;;5124426;27;20043;-62
2023/09/27 00:20:15;;;;;;;21.20;19.05;;;16.40;99.90;;;;;;5126462;27;20027;-62
2023/09/27 00:22:45;;;;;;;21.80;19.17;;;16.30;99.90;;;;;;5125679;27;20172;-63
2023/09/27 00:25:10;;;;;;;23.33;19.20;;;16.30;99.90;;;;;;5125792;27;20039;-64
2023/09/27 00:27:37;;;;;;;21.40;19.17;;;16.30;99.90;;;;;;5126305;27;20035;-62
2023/09/27 00:30:04;;;;;;;21.35;18.65;;;16.20;99.90;;;;;;5126312;27;20053;-65
2023/09/27 00:32:30;;;;;;;21.40;19.15;;;16.20;99.90;;;;;;5107513;27;20394;-62
2023/09/27 00:34:55;;;;;;;19.52;17.35;;;16.10;99.90;;;;;;5125668;27;20023;-64
2023/09/27 00:37:21;;;;;;;21.38;19.17;;;16.10;99.90;;;;;;5123811;27;20035;-63
2023/09/27 00:39:47;;;;;;;21.67;19.38;;;16.00;99.90;;;;;;5124153;27;20455;-64
2023/09/27 00:42:15;;;;;;;22.15;19.90;;;16.00;99.90;;;;;;5124708;27;20376;-62
2023/09/27 00:44:41;;;;;;;23.05;20.73;;;15.90;99.90;;;;;;5123901;27;20033;-63
2023/09/27 00:47:07;;;;;;;22.95;20.50;;;15.90;99.90;;;;;;5106451;27;20031;-64
2023/09/27 00:49:33;;;;;;;24.48;21.98;;;15.80;99.90;;;;;;5106582;27;20030;-64
2023/09/27 00:52:00;;;;;;;24.33;21.90;;;15.80;99.90;;;;;;5106862;27;20035;-63
2023/09/27 00:54:26;;;;;;;23.13;20.83;;;15.80;99.90;;;;;;5125120;27;20503;-62
2023/09/27 00:56:52;;;;;;;24.83;22.35;;;15.70;99.90;;;;;;5125361;27;20085;-64
2023/09/27 00:59:19;;;;;;;25.13;22.52;;;15.80;99.90;;;;;;5125862;27;20035;-64
2023/09/27 01:01:46;;;;;;;23.38;21.00;;;15.70;99.90;;;;;;5125474;27;20038;-62
2023/09/27 01:04:14;;;;;;;24.85;22.05;;;15.60;99.90;;;;;;5125291;27;20039;-64
2023/09/27 01:06:41;;;;;;;24.05;21.75;;;15.70;99.90;;;;;;5124408;27;20496;-62
2023/09/27 01:09:07;;;;;;;23.75;21.17;;;15.60;99.90;;;;;;5125504;27;20378;-64
2023/09/27 01:11:33;;;;;;;22.73;20.42;;;15.60;99.90;;;;;;5125224;27;21236;-64
2023/09/27 01:13:59;;;;;;;23.20;20.73;;;15.60;99.90;;;;;;5104127;27;20711;-65
2023/09/27 01:16:25;;;;;;;23.67;21.35;;;15.50;99.90;;;;;;5124453;27;20084;-62
2023/09/27 01:18:51;;;;;;;23.85;21.45;;;15.50;99.90;;;;;;5125470;27;20473;-63
2023/09/27 01:21:19;;;;;;;24.35;21.90;;;15.50;99.90;;;;;;5125094;27;20092;-64
2023/09/27 01:23:49;;;;;;;23.35;20.95;;;15.50;99.90;;;;;;5124939;27;20039;-65
2023/09/27 01:26:16;;;;;;;23.00;20.58;;;15.50;99.90;;;;;;5124478;27;20047;-62
2023/09/27 01:28:44;;;;;;;22.52;20.20;;;15.40;99.90;;;;;;5089611;27;20035;-64
2023/09/27 01:31:10;;;;;;;24.40;22.02;;;15.50;99.90;;;;;;5124294;27;20130;-63
2023/09/27 01:33:36;;;;;;;23.58;21.33;;;15.40;99.90;;;;;;5125171;27;20126;-64
2023/09/27 01:36:03;;;;;;;22.50;20.33;;;15.40;99.90;;;;;;5071835;27;20031;-63
2023/09/27 01:38:30;;;;;;;24.30;21.85;;;15.30;99.90;;;;;;5123837;27;20046;-65
2023/09/27 01:40:55;;;;;;;23.85;21.38;;;15.40;99.90;;;;;;5125154;27;20482;-63
2023/09/27 01:43:21;;;;;;;22.58;20.13;;;15.30;99.90;;;;;;5124259;27;20037;-61
2023/09/27 01:45:47;;;;;;;24.80;22.20;;;15.30;99.90;;;;;;5124491;27;20027;-64
2023/09/27 01:48:13;;;;;;;24.02;21.63;;;15.30;99.90;;;;;;5088033;27;20092;-66
2023/09/27 01:50:39;;;;;;;22.85;20.65;;;15.30;99.90;;;;;;5124910;27;20084;-64
2023/09/27 01:53:05;;;;;;;22.58;20.25;;;15.20;99.90;;;;;;5124357;27;20470;-64
2023/09/27 01:55:31;;;;;;;21.60;19.48;;;15.20;99.90;;;;;;5105782;27;20039;-65
2023/09/27 01:57:57;;;;;;;24.60;21.98;;;15.20;99.90;;;;;;5124106;27;20036;-63
2023/09/27 02:00:23;;;;;;;25.00;22.50;;;15.10;99.90;;;;;;5106020;27;20035;-62
2023/09/27 02:02:50;;;;;;;25.17;22.63;;;15.20;99.90;;;;;;5124387;27;20026;-64
2023/09/27 02:05:16;;;;;;;24.92;22.42;;;15.20;99.90;;;;;;5124360;27;20031;-64
2023/09/27 02:07:42;;;;;;;24.77;21.92;;;15.10;99.90;;;;;;5122948;27;20083;-65
2023/09/27 02:10:10;;;;;;;26.02;23.52;;;15.10;99.90;;;;;;5123948;27;20054;-63
2023/09/27 02:12:36;;;;;;;25.85;23.23;;;15.10;99.90;;;;;;5123824;27;20047;-64
2023/09/27 02:15:07;;;;;;;25.33;22.92;;;15.10;99.90;;;;;;5123867;27;20046;-63
2023/09/27 02:17:33;;;;;;;26.83;23.95;;;15.10;99.90;;;;;;5104948;27;20092;-62
2023/09/27 02:19:58;;;;;;;26.88;24.17;;;15.10;99.90;;;;;;5105423;27;20031;-64
2023/09/27 02:22:24;;;;;;;26.38;23.73;;;15.00;99.90;;;;;;5105008;27;20521;-64
2023/09/27 02:24:50;;;;;;;27.20;24.58;;;15.10;99.90;;;;;;5124319;27;20035;-64
2023/09/27 02:27:16;;;;;;;26.50;23.90;;;15.00;99.90;;;;;;5123666;27;20092;-65
2023/09/27 02:29:42;;;;;;;24.92;22.30;;;15.10;99.90;;;;;;5124204;27;20035;-64
2023/09/27 02:32:09;;;;;;;26.42;18.05;;;15.00;99.90;;;;;;5124188;27;20035;-64
2023/09/27 02:34:37;;;;;;;24.10;21.60;;;14.90;99.90;;;;;;5123743;27;20077;-65
2023/09/27 02:37:04;;;;;;;27.13;24.52;;;14.90;99.90;;;;;;5122914;27;20088;-63
2023/09/27 02:39:30;;;;;;;25.88;23.27;;;14.90;99.90;;;;;;5122516;27;20050;-65
2023/09/27 02:42:00;;;;;;;24.25;21.98;;;14.90;99.90;;;;;;5123519;27;20031;-63
2023/09/27 02:44:26;;;;;;;25.08;22.48;;;14.90;99.90;;;;;;5123577;27;20470;-64
2023/09/27 02:46:52;;;;;;;26.80;24.20;;;14.80;99.90;;;;;;5123818;27;20139;-66
2023/09/27 02:49:19;;;;;;;24.92;22.33;;;14.80;99.90;;;;;;5122796;27;20031;-64
2023/09/27 02:51:47;;;;;;;28.55;25.65;;;14.80;99.90;;;;;;5123983;27;20039;-65
2023/09/27 02:54:16;;;;;;;26.30;23.83;;;14.80;99.90;;;;;;5122961;27;20031;-64
2023/09/27 02:56:43;;;;;;;28.25;25.50;;;14.80;99.90;;;;;;5123402;27;20035;-64
2023/09/27 02:59:10;;;;;;;31.17;19.92;;;14.80;99.90;;;;;;5122405;28;20031;-63
2023/09/27 03:01:43;;;;;;;28.50;25.70;;;14.70;99.90;;;;;;5123776;28;20063;-62
2023/09/27 03:04:10;;;;;;;29.08;25.98;;;14.70;99.90;;;;;;5122361;28;20110;-63
2023/09/27 03:06:37;;;;;;;29.27;26.38;;;14.70;99.90;;;;;;5123382;28;20505;-64
2023/09/27 03:09:04;;;;;;;28.98;26.05;;;14.70;99.90;;;;;;5122912;28;20031;-63
2023/09/27 03:11:30;;;;;;;30.60;27.52;;;14.70;99.90;;;;;;5103576;28;20083;-65
2023/09/27 03:13:56;;;;;;;29.70;26.70;;;14.70;99.90;;;;;;5123681;28;20443;-64
2023/09/27 03:16:22;;;;;;;26.98;24.38;;;14.60;99.90;;;;;;5123362;28;20059;-64
2023/09/27 03:18:47;;;;;;;27.98;25.27;;;14.60;99.90;;;;;;5104255;28;20051;-63
2023/09/27 03:21:13;;;;;;;26.40;23.73;;;14.70;99.90;;;;;;5122973;28;20126;-63
2023/09/27 03:23:39;;;;;;;28.88;25.88;;;14.70;99.90;;;;;;5122702;28;20058;-64
2023/09/27 03:26:04;;;;;;;26.05;23.33;;;14.60;99.90;;;;;;5105973;28;20382;-63
2023/09/27 03:28:30;;;;;;;26.90;24.20;;;14.60;99.90;;;;;;5123072;28;20057;-65
2023/09/27 03:30:56;;;;;;;26.77;24.17;;;14.60;99.90;;;;;;5123328;28;20118;-65
2023/09/27 03:33:22;;;;;;;25.88;23.30;;;14.60;99.90;;;;;;5104615;28;20039;-64
2023/09/27 03:35:47;;;;;;;29.98;25.83;;;14.50;99.90;;;;;;5086412;28;20060;-65
2023/09/27 03:38:13;;;;;;;27.45;24.60;;;14.50;99.90;;;;;;5120636;28;20035;-65
2023/09/27 03:40:42;;;;;;;26.83;24.15;;;14.50;99.90;;;;;;5122515;27;20497;-64
2023/09/27 03:43:08;;;;;;;29.02;26.05;;;14.40;99.90;;;;;;5103346;28;20489;-65
2023/09/27 03:45:35;;;;;;;29.48;26.42;;;14.50;99.90;;;;;;5122976;28;20042;-65
2023/09/27 03:48:02;;;;;;;31.02;27.80;;;14.40;99.90;;;;;;5123495;27;20058;-63
2023/09/27 03:50:31;;;;;;;29.63;26.65;;;14.40;99.90;;;;;;5124164;27;20043;-63
2023/09/27 03:52:58;;;;;;;30.50;27.30;;;14.40;99.90;;;;;;5124243;27;20051;-64
2023/09/27 03:55:24;;;;;;;29.25;26.17;;;14.40;99.90;;;;;;5090091;27;20043;-65
2023/09/27 03:57:51;;;;;;;29.30;26.50;;;14.40;99.90;;;;;;5126141;27;20039;-64
2023/09/27 04:00:17;;;;;;;29.05;26.23;;;14.30;99.90;;;;;;5108361;27;20431;-65
2023/09/27 04:02:44;;;;;;;30.80;27.73;;;14.40;99.90;;;;;;5127004;27;20118;-63
2023/09/27 04:05:10;;;;;;;28.55;25.85;;;14.30;99.90;;;;;;5126315;27;21147;-65
2023/09/27 04:07:36;;;;;;;29.60;26.60;;;14.40;99.90;;;;;;5126200;27;20031;-65
2023/09/27 04:10:07;;;;;;;28.10;25.50;;;14.20;99.90;;;;;;5125730;27;20034;-63
2023/09/27 04:12:34;;;;;;;27.17;24.58;;;14.20;99.90;;;;;;5090109;27;20066;-63
2023/09/27 04:15:00;;;;;;;27.75;25.05;;;14.30;99.90;;;;;;5126367;27;20038;-64
2023/09/27 04:17:25;;;;;;;28.05;25.33;;;14.20;99.90;;;;;;5126462;27;20039;-66
2023/09/27 04:19:53;;;;;;;28.98;26.17;;;14.10;99.90;;;;;;5106657;27;20572;-63
2023/09/27 04:22:19;;;;;;;30.50;27.50;;;14.10;99.90;;;;;;5125826;27;20175;-64
2023/09/27 04:24:45;;;;;;;29.77;26.95;;;14.10;99.90;;;;;;5108392;27;20039;-64
2023/09/27 04:27:11;;;;;;;30.00;27.10;;;14.10;99.90;;;;;;5126241;27;20027;-64
2023/09/27 04:29:37;;;;;;;30.48;27.38;;;14.10;99.90;;;;;;5125726;27;20558;-64
2023/09/27 04:32:03;;;;;;;30.30;27.27;;;14.00;99.90;;;;;;5107600;27;20227;-64
2023/09/27 04:34:28;;;;;;;28.23;18.77;;;14.10;99.90;;;;;;5125598;27;20031;-64
2023/09/27 04:36:55;;;;;;;26.65;23.85;;;14.00;99.90;;;;;;5126053;27;20042;-64
2023/09/27 04:39:20;;;;;;;26.63;24.15;;;13.90;99.90;;;;;;5125052;27;20102;-65
2023/09/27 04:41:46;;;;;;;26.95;24.38;;;13.90;99.90;;;;;;5106600;27;20114;-62
2023/09/27 04:44:13;;;;;;;25.48;23.17;;;13.90;99.90;;;;;;5126111;27;20035;-64
2023/09/27 04:46:39;;;;;;;28.92;26.10;;;13.80;99.90;;;;;;5125917;27;20031;-65
2023/09/27 04:49:05;;;;;;;29.65;26.65;;;13.80;99.90;;;;;;5125348;27;20391;-63
2023/09/27 04:51:30;;;;;;;30.27;27.30;;;13.80;99.90;;;;;;5124716;27;20035;-64
2023/09/27 04:54:00;;;;;;;31.02;27.88;;;13.90;99.90;;;;;;5124251;27;20090;-64
2023/09/27 04:56:27;;;;;;;33.47;30.17;;;13.80;99.90;;;;;;5105204;27;20035;-64
2023/09/27 04:58:53;;;;;;;31.92;28.85;;;13.80;99.90;;;;;;5123389;27;20569;-63
2023/09/27 05:01:18;;;;;;;32.80;29.58;;;13.80;99.90;;;;;;5123907;27;20038;-64
2023/09/27 05:03:44;;;;;;;30.90;27.98;;;13.80;99.90;;;;;;5105785;27;20435;-64
2023/09/27 05:06:10;;;;;;;31.17;28.05;;;13.70;99.90;;;;;;5124216;27;20390;-65
2023/09/27 05:08:35;;;;;;;30.65;27.60;;;13.70;99.90;;;;;;5106732;27;20035;-66
2023/09/27 05:11:01;;;;;;;29.50;26.70;;;13.80;99.90;;;;;;5106172;27;20066;-65
2023/09/27 05:13:27;;;;;;;29.27;26.45;;;13.70;99.90;;;;;;5125265;27;22500;-63
2023/09/27 05:15:53;;;;;;;32.78;29.45;;;13.80;99.90;;;;;;5125583;27;20035;-65
2023/09/27 05:18:22;;;;;;;33.65;30.35;;;13.70;99.90;;;;;;5106144;27;20362;-64
2023/09/27 05:20:48;;;;;;;34.90;31.25;;;13.70;99.90;;;;;;5123922;27;20051;-63
2023/09/27 05:23:14;;;;;;;34.88;31.55;;;13.70;99.90;;;;;;5125025;27;20122;-63
2023/09/27 05:25:41;;;;;;;34.75;31.42;;;13.80;99.90;;;;;;5125017;27;20035;-63
2023/09/27 05:28:07;;;;;;;35.45;31.88;;;13.80;99.90;;;;;;5124918;27;20039;-63
2023/09/27 05:30:33;;;;;;;36.05;32.53;;;13.70;99.90;;;;;;5125027;27;20061;-65
2023/09/27 05:32:58;;;;;;;34.38;31.08;;;13.70;99.90;;;;;;5124309;27;20048;-64
2023/09/27 05:35:24;;;;;;;36.22;32.63;;;13.70;99.90;;;;;;5125220;27;20035;-63
2023/09/27 05:37:50;;;;;;;34.28;30.90;;;13.70;99.90;;;;;;5124409;27;20039;-65
2023/09/27 05:40:16;;;;;;;34.80;31.40;;;13.70;99.90;;;;;;5123925;27;20470;-65
2023/09/27 05:42:42;;;;;;;36.75;33.20;;;13.80;99.90;;;;;;5124700;27;20061;-65
2023/09/27 05:45:11;;;;;;;37.38;33.67;;;13.90;99.90;;;;;;5123750;27;20092;-64
2023/09/27 05:47:38;;;;;;;33.70;30.30;;;13.80;99.90;;;;;;5124763;27;20084;-63
2023/09/27 05:50:04;;;;;;;36.05;32.60;;;13.80;99.90;;;;;;5104775;27;20033;-64
2023/09/27 05:52:31;;;;;;;35.85;32.35;;;13.90;99.90;;;;;;5105892;27;20122;-65
2023/09/27 05:54:57;;;;;;;36.63;32.58;;;13.90;99.90;;;;;;5123869;27;20061;-65
2023/09/27 05:57:23;;;;;;;35.67;32.15;;;13.90;99.90;;;;;;5124004;27;20493;-64
2023/09/27 05:59:49;;;;;;;34.63;31.13;;;14.00;99.90;;;;;;5124055;27;20059;-66
2023/09/27 06:02:18;;;;;;;34.88;31.27;;;14.00;99.90;;;;;;5123783;27;20070;-64
2023/09/27 06:04:44;;;;;;;35.78;32.08;;;13.90;99.90;;;;;;5104782;27;20103;-65
2023/09/27 06:07:13;;;;;;;34.08;30.67;;;14.00;99.90;;;;;;5105524;27;20534;-64
2023/09/27 06:09:40;;;;;;;33.00;29.73;;;14.00;99.90;;;;;;5124188;27;20059;-63
2023/09/27 06:12:07;;;;;;;34.92;31.55;;;14.10;99.90;;;;;;5123547;27;20039;-62
2023/09/27 06:14:34;;;;;;;33.35;29.95;;;14.10;99.90;;;;;;5123561;27;20039;-62
2023/09/27 06:17:00;;;;;;;35.35;31.55;;;14.10;99.90;;;;;;5123772;27;20380;-66
2023/09/27 06:19:26;;;;;;;35.40;31.98;;;14.00;99.90;;;;;;5123689;27;20034;-65
2023/09/27 06:21:51;;;;;;;35.08;31.63;;;14.00;99.90;;;;;;5124082;27;20035;-64
2023/09/27 06:24:17;;;;;;;33.75;22.63;;;14.10;99.90;;;;;;5122952;27;20050;-64
2023/09/27 06:26:43;;;;;;;35.08;31.58;;;13.90;99.90;;;;;;5123501;27;20046;-64
2023/09/27 06:29:09;;;;;;;36.42;32.63;;;14.10;99.90;;;;;;5119897;27;20095;-65
2023/09/27 06:31:35;;;;;;;35.95;32.33;;;14.00;99.90;;;;;;5104015;27;20034;-63
2023/09/27 06:34:01;;;;;;;35.63;25.80;;;14.00;99.90;;;;;;5104931;27;20039;-64
2023/09/27 06:36:29;;;;;;;36.20;32.53;;;14.10;99.90;;;;;;5122590;27;20027;-66
2023/09/27 06:38:58;;;;;;;35.42;31.98;;;14.10;99.90;;;;;;5122363;27;20039;-65
2023/09/27 06:41:23;;;;;;;39.83;33.85;;;14.30;99.90;;;;;;5104286;27;20133;-63
2023/09/27 06:43:50;;;;;;;39.97;35.90;;;14.30;99.90;;;;;;5123105;27;20063;-65
2023/09/27 06:46:17;;;;;;;41.75;37.25;;;14.30;99.90;;;;;;5122751;27;20031;-65
2023/09/27 06:48:43;;;;;;;42.63;38.33;;;14.40;99.90;;;;;;5087366;27;20092;-64
2023/09/27 06:51:11;;;;;;;43.83;39.20;;;14.40;99.90;;;;;;5123262;27;20556;-64
2023/09/27 06:53:38;;;;;;;44.05;38.97;;;14.50;99.90;;;;;;5104691;28;20386;-62
2023/09/27 06:56:05;;;;;;;43.95;39.47;;;14.50;99.90;;;;;;5122469;27;20071;-63
2023/09/27 06:58:31;;;;;;;44.65;39.95;;;14.60;99.90;;;;;;5122070;27;20612;-65
2023/09/27 07:00:57;;;;;;;45.67;39.20;;;14.50;99.90;;;;;;5122744;28;20122;-65
2023/09/27 07:03:28;;;;;;;43.35;38.80;;;14.60;99.90;;;;;;5121184;28;20033;-64
2023/09/27 07:05:54;;;;;;;41.97;37.47;;;14.70;99.90;;;;;;5122506;28;20110;-65
2023/09/27 07:08:20;;;;;;;42.60;38.08;;;14.70;99.90;;;;;;5122259;28;20745;-65
2023/09/27 07:10:47;;;;;;;42.05;37.45;;;14.70;99.90;;;;;;5122990;28;20124;-62
2023/09/27 07:13:12;;;;;;;43.70;39.10;;;14.80;99.90;;;;;;5121272;28;20116;-64
2023/09/27 07:15:38;;;;;;;41.80;37.33;;;14.70;99.90;;;;;;5121826;27;20055;-65
2023/09/27 07:18:04;;;;;;;42.25;37.65;;;14.80;99.90;;;;;;5104124;27;20031;-63
2023/09/27 07:20:34;;;;;;;40.67;36.42;;;14.80;99.90;;;;;;5122040;27;20553;-63
2023/09/27 07:23:05;;;;;;;40.10;35.97;;;14.80;99.90;;;;;;5106816;27;20060;-65
2023/09/27 07:25:34;;;;;;;44.95;30.65;;;14.90;99.90;;;;;;5126991;27;20540;-67
2023/09/27 07:28:03;;;;;;;38.03;33.95;;;15.00;99.90;;;;;;5135710;27;20070;-64
2023/09/27 07:30:29;;;;;;;37.40;33.70;;;14.90;99.90;;;;;;5135204;27;20112;-65
2023/09/27 07:32:55;;;;;;;35.50;32.00;;;15.10;99.90;;;;;;5134249;27;20359;-65
2023/09/27 07:35:21;;;;;;;37.35;33.33;;;15.00;99.90;;;;;;5097690;27;20062;-65
2023/09/27 07:37:47;;;;;;;37.60;33.88;;;15.00;99.90;;;;;;5142284;27;20049;-63
2023/09/27 07:40:14;;;;;;;34.60;31.10;;;15.00;99.90;;;;;;5136960;27;20382;-61
2023/09/27 07:42:44;;;;;;;37.85;33.95;;;15.20;99.90;;;;;;5133990;27;20474;-63
2023/09/27 07:45:25;;;;;;;37.55;33.50;;;15.30;99.90;;;;;;5134659;27;20423;-65
2023/09/27 07:47:53;;;;;;;36.42;32.80;;;15.20;99.90;;;;;;5133750;27;20390;-65
2023/09/27 07:50:27;;;;;;;35.90;32.15;;;15.30;99.90;;;;;;5134496;27;20039;-62
2023/09/27 07:52:58;;;;;;;34.22;30.65;;;15.30;99.90;;;;;;5133835;27;20035;-63
2023/09/27 07:55:24;;;;;;;33.63;30.08;;;15.40;99.90;;;;;;5122407;27;20644;-64
2023/09/27 07:57:52;;;;;;;35.05;31.45;;;15.50;99.90;;;;;;5118486;27;20075;-61
2023/09/27 08:00:19;;;;;;;34.53;31.02;;;15.40;99.90;;;;;;5116625;27;20486;-63
2023/09/27 08:02:45;;;;;;;35.05;31.45;;;15.50;99.90;;;;;;5129459;27;20027;-64
2023/09/27 08:05:14;;;;;;;33.72;30.33;;;15.70;99.90;;;;;;5133746;27;20039;-64
2023/09/27 08:07:40;;;;;;;33.53;30.20;;;15.70;99.90;;;;;;5109125;27;20038;-65
2023/09/27 08:10:07;;;;;;;32.53;29.17;;;15.90;99.90;;;;;;5133682;27;20043;-63
2023/09/27 08:12:34;;;;;;;33.72;30.08;;;16.00;99.90;;;;;;5131474;27;20490;-63
2023/09/27 08:15:06;;;;;;;33.45;30.08;;;16.00;99.90;;;;;;5131484;27;20088;-64
2023/09/27 08:17:33;;;;;;;36.88;30.55;;;16.20;99.90;;;;;;5112948;27;20039;-63
2023/09/27 08:19:59;;;;;;;32.35;29.08;;;16.20;99.90;;;;;;5129961;27;20112;-63
2023/09/27 08:22:26;;;;;;;32.22;28.80;;;16.40;99.90;;;;;;5132119;27;20045;-62
2023/09/27 08:24:51;;;;;;;33.58;30.38;;;16.40;99.90;;;;;;5132800;27;20360;-64
2023/09/27 08:27:17;;;;;;;34.30;30.70;;;16.50;99.90;;;;;;5113589;27;20042;-64
2023/09/27 08:29:43;;;;;;;32.92;29.42;;;16.50;99.90;;;;;;5130462;27;20075;-65
2023/09/27 08:32:09;;;;;;;31.95;28.83;;;16.80;99.90;;;;;;5132186;27;20062;-64
2023/09/27 08:34:35;;;;;;;32.78;29.38;;;16.70;99.90;;;;;;5124711;27;20050;-63
2023/09/27 08:37:01;;;;;;;32.80;29.27;;;16.90;99.90;;;;;;5131470;27;20063;-64
2023/09/27 08:39:27;;;;;;;31.92;28.52;;;17.00;99.90;;;;;;5131081;27;20069;-64
2023/09/27 08:41:58;;;;;;;31.23;28.13;;;17.10;99.90;;;;;;5131940;27;20039;-64
2023/09/27 08:44:24;;;;;;;32.88;29.27;;;17.00;99.90;;;;;;5132196;27;20388;-62
2023/09/27 08:46:50;;;;;;;33.55;30.02;;;17.10;99.90;;;;;;5131467;27;20027;-62
2023/09/27 08:49:17;;;;;;;32.33;29.02;;;17.10;99.90;;;;;;5134043;27;20084;-65
2023/09/27 08:51:45;;;;;;;34.38;30.77;;;17.20;99.90;;;;;;5129618;27;20057;-63
2023/09/27 08:54:16;;;;;;;33.25;29.70;;;17.40;99.90;;;;;;5130978;27;20126;-61
2023/09/27 08:56:47;;;;;;;31.20;27.90;;;17.50;99.90;;;;;;5131099;27;20054;-61
2023/09/27 08:59:13;;;;;;;29.40;26.23;;;17.60;99.90;;;;;;5112464;27;20106;-62
2023/09/27 09:01:43;;;;;;;32.65;27.92;;;17.80;99.90;;;;;;5130296;27;20070;-62
2023/09/27 09:04:11;;;;;;;30.23;24.88;;;18.00;99.90;;;;;;5132184;27;20045;-60
2023/09/27 09:06:37;;;;;;;28.90;25.92;;;18.20;99.90;;;;;;5130764;27;20035;-61
2023/09/27 09:09:10;;;;;;;28.48;25.48;;;18.20;99.90;;;;;;5131771;27;20300;-62
2023/09/27 09:11:47;;;;;;;28.05;25.10;;;18.50;99.90;;;;;;5131531;27;20035;-63
2023/09/27 09:14:17;;;;;;;28.20;25.02;;;18.60;99.90;;;;;;5112528;27;20042;-60
2023/09/27 09:16:53;;;;;;;24.42;21.88;;;18.60;99.90;;;;;;5112945;27;20135;-62
2023/09/27 09:19:24;;;;;;;26.90;23.63;;;18.90;99.90;;;;;;5128883;27;20240;-62
2023/09/27 09:21:57;;;;;;;26.60;23.80;;;19.00;99.90;;;;;;5110689;27;20069;-61
2023/09/27 09:24:23;;;;;;;26.48;23.38;;;19.00;99.90;;;;;;5131903;27;20133;-60
2023/09/27 09:27:07;;;;;;;26.33;22.52;;;19.20;99.90;;;;;;5128566;27;20110;-62
2023/09/27 09:29:45;;;;;;;24.42;21.83;;;19.10;99.90;;;;;;5125738;27;20658;-63
2023/09/27 09:32:12;;;;;;;25.63;22.88;;;19.10;99.90;;;;;;5128451;27;20035;-62
2023/09/27 09:34:49;;;;;;;27.73;23.50;;;19.10;99.90;;;;;;5129991;27;20039;-59
2023/09/27 09:37:19;;;;;;;25.08;20.60;;;19.80;99.90;;;;;;5129536;27;20031;-60
2023/09/27 09:39:47;;;;;;;25.08;22.40;;;19.20;99.90;;;;;;5131609;27;20084;-59
2023/09/27 09:42:14;;;;;;;23.30;20.80;;;19.30;99.90;;;;;;5100555;27;20730;-58
2023/09/27 09:44:40;;;;;;;24.58;20.75;;;19.30;99.90;;;;;;5110110;27;20054;-57
2023/09/27 09:47:10;;;;;;;20.58;18.38;;;19.50;99.90;;;;;;5113151;27;20486;-59
2023/09/27 09:49:36;;;;;;;22.88;18.50;;;19.80;99.90;;;;;;5116100;27;20031;-59
2023/09/27 09:52:04;;;;;;;22.45;20.00;;;19.80;99.90;;;;;;5109943;27;20065;-56
2023/09/27 09:54:37;;;;;;;21.15;18.60;;;19.80;99.90;;;;;;5113624;27;20039;-61
2023/09/27 09:57:07;;;;;;;21.55;18.67;;;19.90;99.90;;;;;;5096529;27;20038;-60
2023/09/27 09:59:45;;;;;;;20.90;18.70;;;19.90;99.90;;;;;;5132313;27;20569;-60
2023/09/27 10:02:26;;;;;;;20.95;18.60;;;19.90;99.90;;;;;;5132001;27;20050;-61
2023/09/27 10:04:56;;;;;;;23.05;17.77;;;19.80;99.90;;;;;;5131700;27;20643;-61
2023/09/27 10:07:23;;;;;;;21.67;18.52;;;19.90;99.90;;;;;;5131534;27;20035;-63
2023/09/27 10:09:52;;;;;;;22.33;17.98;;;19.90;99.90;;;;;;5131742;27;20087;-62
2023/09/27 10:12:21;;;;;;;17.55;15.13;;;20.10;99.90;;;;;;5132496;27;20080;-63
2023/09/27 10:14:48;;;;;;;19.88;15.45;;;20.30;99.90;;;;;;5132160;27;20346;-60
2023/09/27 10:17:26;;;;;;;20.90;17.23;;;20.40;99.90;;;;;;5132531;27;20089;-60
2023/09/27 10:20:22;;;;;;;18.15;16.23;;;20.40;99.90;;;;;;5132653;27;20035;-61
2023/09/27 10:22:52;;;;;;;21.02;18.15;;;20.40;99.90;;;;;;5132268;27;20130;-64
2023/09/27 10:25:23;;;;;;;20.17;16.42;;;20.40;99.90;;;;;;5132200;27;20049;-62
2023/09/27 10:28:01;;;;;;;19.08;16.50;;;20.50;99.90;;;;;;5131555;27;20173;-63
2023/09/27 10:30:48;;;;;;;16.58;14.45;;;20.50;99.90;;;;;;5131224;27;20066;-60
2023/09/27 10:33:20;;;;;;;16.65;13.10;;;20.70;99.90;;;;;;5131703;27;20439;-62
2023/09/27 10:36:01;;;;;;;16.70;13.10;;;20.80;99.90;;;;;;5132026;27;20095;-62
2023/09/27 10:38:42;;;;;;;19.27;14.07;;;20.80;99.90;;;;;;5130590;27;20387;-62
2023/09/27 10:41:08;;;;;;;16.63;12.77;;;21.00;99.90;;;;;;5113425;27;20110;-60
2023/09/27 10:43:38;;;;;;;14.65;12.25;;;21.00;99.90;;;;;;5131008;27;20031;-61
2023/09/27 10:46:04;;;;;;;15.95;12.45;;;21.20;99.90;;;;;;5130824;27;20035;-60
2023/09/27 10:48:35;;;;;;;15.55;12.75;;;21.30;99.90;;;;;;5132198;27;20039;-63
2023/09/27 10:51:02;;;;;;;16.08;13.00;;;21.40;99.90;;;;;;5131925;27;20035;-60
2023/09/27 10:53:28;;;;;;;15.10;12.25;;;21.40;99.90;;;;;;5131767;27;20038;-60
2023/09/27 10:55:54;;;;;;;15.98;13.30;;;21.50;99.90;;;;;;5131903;27;20031;-60
2023/09/27 10:58:20;;;;;;;15.30;12.07;;;21.50;99.90;;;;;;5131378;27;20042;-60
2023/09/27 11:01:04;;;;;;;14.45;11.98;;;21.40;99.90;;;;;;5131435;27;20035;-62
2023/09/27 11:03:30;;;;;;;15.00;12.77;;;21.30;99.90;;;;;;5132039;28;20116;-60
2023/09/27 11:06:12;;;;;;;15.18;12.13;;;21.30;99.90;;;;;;5113508;28;20035;-63
2023/09/27 11:08:41;;;;;;;15.85;10.88;;;21.30;99.90;;;;;;5131201;28;20039;-62
2023/09/27 11:11:08;;;;;;;13.77;10.77;;;21.30;99.90;;;;;;5113099;28;20486;-62
2023/09/27 11:13:35;;;;;;;17.10;10.82;;;21.40;99.90;;;;;;5112914;28;20051;-62
2023/09/27 11:16:08;;;;;;;13.43;10.45;;;21.40;99.90;;;;;;5131365;28;20127;-61
2023/09/27 11:18:35;;;;;;;16.45;10.82;;;21.60;99.90;;;;;;5131278;28;20054;-61
2023/09/27 11:21:11;;;;;;;13.20;10.25;;;21.70;99.90;;;;;;5131075;28;20039;-61
2023/09/27 11:24:04;;;;;;;11.13;9.05;;;21.70;99.90;;;;;;5131272;28;20047;-61
2023/09/27 11:26:32;;;;;;;12.00;9.67;;;21.80;99.90;;;;;;5131346;28;20534;-60
2023/09/27 11:29:04;;;;;;;17.50;12.05;;;22.00;99.90;;;;;;5112832;28;20039;-63
2023/09/27 11:31:35;;;;;;;15.98;11.73;;;22.10;99.90;;;;;;5131321;28;20067;-60
2023/09/27 11:34:17;;;;;;;16.08;11.50;;;22.10;99.90;;;;;;5131650;28;20110;-61
2023/09/27 11:36:44;;;;;;;15.40;11.77;;;22.10;99.90;;;;;;5129558;28;20031;-63
2023/09/27 11:39:13;;;;;;;13.57;12.00;;;21.90;99.90;;;;;;5131022;28;20031;-60
2023/09/27 11:41:39;;;;;;;14.70;12.18;;;21.80;99.90;;;;;;5131497;28;20043;-60
2023/09/27 11:44:23;;;;;;;14.32;12.07;;;21.80;99.90;;;;;;5131574;28;20496;-61
2023/09/27 11:46:49;;;;;;;16.60;12.70;;;21.80;99.90;;;;;;5131343;28;20419;-60
2023/09/27 11:49:16;;;;;;;15.95;11.23;;;21.90;99.90;;;;;;5130853;28;20115;-61
2023/09/27 11:51:43;;;;;;;14.63;12.70;;;22.00;99.90;;;;;;5112935;28;20055;-61
2023/09/27 11:54:09;;;;;;;17.73;12.40;;;22.00;99.90;;;;;;5130941;28;20096;-63
2023/09/27 11:56:36;;;;;;;14.60;12.50;;;22.00;99.90;;;;;;5131335;28;20528;-61
2023/09/27 11:59:03;;;;;;;13.00;11.35;;;22.20;99.90;;;;;;5131303;28;20058;-62
2023/09/27 12:01:29;;;;;;;13.00;11.13;;;22.50;99.90;;;;;;5131177;28;20039;-61
2023/09/27 12:03:54;;;;;;;15.13;10.82;;;22.60;99.90;;;;;;5131310;28;20035;-62
2023/09/27 12:06:21;;;;;;;14.48;11.10;;;22.70;99.90;;;;;;5130921;28;20065;-61
2023/09/27 12:08:47;;;;;;;14.32;10.73;;;22.70;99.90;;;;;;5131400;27;20190;-61
2023/09/27 12:11:13;;;;;;;13.68;10.13;;;22.80;99.90;;;;;;5134729;27;20039;-62
2023/09/27 12:13:40;;;;;;;14.20;9.82;;;23.10;99.90;;;;;;5134311;27;20125;-61
2023/09/27 12:16:06;;;;;;;15.20;10.20;;;23.50;99.90;;;;;;5134597;27;20038;-62
2023/09/27 12:18:31;;;;;;;11.40;9.95;;;23.60;99.90;;;;;;5115657;27;20424;-62
2023/09/27 12:20:57;;;;;;;13.25;9.57;;;23.80;99.90;;;;;;5134716;27;20073;-62
2023/09/27 12:23:23;;;;;;;12.57;9.60;;;23.90;99.90;;;;;;5116151;27;20051;-62
2023/09/27 12:25:49;;;;;;;12.10;9.02;;;24.00;99.90;;;;;;5116228;27;20114;-62
2023/09/27 12:28:15;;;;;;;11.73;8.63;;;24.20;99.90;;;;;;5134345;27;20139;-62
2023/09/27 12:30:41;;;;;;;12.18;7.88;;;24.40;99.90;;;;;;5133630;27;20097;-63